createdAt,value
2022-11-29T00:04:11.765Z,5.40
2022-11-29T00:09:07.021Z,5.90
2022-11-29T00:13:58.590Z,5.87
2022-11-29T00:18:50.196Z,5.33
2022-11-29T00:23:41.778Z,5.93
2022-11-29T00:28:35.368Z,5.83
2022-11-29T00:33:28.004Z,5.83
2022-11-29T00:38:19.613Z,5.30
2022-11-29T00:43:11.171Z,4.73
2022-11-29T00:48:02.680Z,5.40
2022-11-29T00:52:54.217Z,5.80
2022-11-29T00:57:45.836Z,5.20
2022-11-29T01:02:37.620Z,5.80
2022-11-29T01:07:29.357Z,5.57
2022-11-29T01:12:20.911Z,5.63
2022-11-29T01:17:12.521Z,5.47
2022-11-29T01:22:04.119Z,5.87
2022-11-29T01:26:55.688Z,5.90
2022-11-29T01:31:47.225Z,6.57
2022-11-29T01:36:38.755Z,6.13
2022-11-29T01:41:32.402Z,6.10
2022-11-29T01:46:24.715Z,6.33
2022-11-29T01:51:16.497Z,6.83
2022-11-29T01:56:08.230Z,6.60
2022-11-29T02:01:01.142Z,6.07
2022-11-29T02:05:53.889Z,6.87
2022-11-29T02:11:08.335Z,6.30
2022-11-29T02:16:37.860Z,6.77
2022-11-29T02:22:02.880Z,6.33
2022-11-29T02:27:23.080Z,6.30
2022-11-29T02:32:20.720Z,6.37
2022-11-29T02:37:47.748Z,6.33
2022-11-29T02:43:13.863Z,6.13
2022-11-29T02:48:26.797Z,6.47
2022-11-29T02:53:27.931Z,7.03
2022-11-29T02:58:31.601Z,6.57
2022-11-29T03:03:32.575Z,7.27
2022-11-29T03:08:35.330Z,7.17
2022-11-29T03:13:48.851Z,7.53
2022-11-29T03:19:05.065Z,8.43
2022-11-29T03:24:04.788Z,8.00
2022-11-29T03:29:07.059Z,8.87
2022-11-29T03:34:04.486Z,8.13
2022-11-29T03:39:00.313Z,9.33
2022-11-29T03:43:57.292Z,9.47
2022-11-29T03:48:55.496Z,9.70
2022-11-29T03:54:02.469Z,10.03
2022-11-29T03:59:15.317Z,10.30
2022-11-29T04:04:15.982Z,10.70
2022-11-29T04:09:19.826Z,10.60
2022-11-29T04:14:56.490Z,11.37
2022-11-29T04:20:18.975Z,12.27
2022-11-29T04:25:32.484Z,12.87
2022-11-29T04:30:36.710Z,13.83
2022-11-29T04:35:43.146Z,15.23
2022-11-29T04:40:43.858Z,16.43
2022-11-29T04:46:03.161Z,18.00
2022-11-29T04:51:33.531Z,19.73
2022-11-29T04:56:30.880Z,19.10
2022-11-29T05:01:35.574Z,19.33
2022-11-29T05:06:56.311Z,21.37
2022-11-29T05:12:01.472Z,21.23
2022-11-29T05:17:31.529Z,21.67
2022-11-29T05:22:50.052Z,22.53
2022-11-29T05:28:05.609Z,23.37
2022-11-29T05:33:24.542Z,22.63
2022-11-29T05:39:07.626Z,23.50
2022-11-29T05:44:17.087Z,21.63
2022-11-29T05:49:35.040Z,23.00
2022-11-29T05:54:32.937Z,20.80
2022-11-29T05:59:30.091Z,21.83
2022-11-29T06:04:58.704Z,20.73
2022-11-29T06:10:01.453Z,21.80
2022-11-29T06:15:12.981Z,22.97
2022-11-29T06:20:42.008Z,23.03
2022-11-29T06:25:50.709Z,24.00
2022-11-29T06:31:01.007Z,25.93
2022-11-29T06:36:00.639Z,26.80
2022-11-29T06:40:54.928Z,27.50
2022-11-29T06:45:59.442Z,27.03
2022-11-29T06:51:29.144Z,27.50
2022-11-29T06:56:56.161Z,26.67
2022-11-29T07:02:20.847Z,28.50
2022-11-29T07:07:17.917Z,24.93
2022-11-29T07:12:09.902Z,26.63
2022-11-29T07:17:14.334Z,27.07
2022-11-29T07:22:31.042Z,27.50
2022-11-29T07:27:49.624Z,28.40
2022-11-29T07:33:14.547Z,25.67
2022-11-29T07:38:11.953Z,25.43
2022-11-29T07:43:31.558Z,26.63
2022-11-29T07:48:23.279Z,27.03
2022-11-29T07:53:20.106Z,26.80
2022-11-29T07:58:13.031Z,27.97
2022-11-29T08:03:04.884Z,27.83
2022-11-29T08:07:56.708Z,27.53
2022-11-29T08:12:50.738Z,26.03
2022-11-29T08:17:42.292Z,25.30
2022-11-29T08:22:34.039Z,26.53
2022-11-29T08:27:25.910Z,25.80
2022-11-29T08:32:17.690Z,26.63
2022-11-29T08:37:09.302Z,29.10
2022-11-29T08:42:00.837Z,24.53
2022-11-29T08:47:15.338Z,24.70
2022-11-29T08:52:25.721Z,24.47
2022-11-29T08:57:39.053Z,24.27
2022-11-29T09:02:28.949Z,23.80
2022-11-29T09:07:20.607Z,24.20
2022-11-29T09:12:12.375Z,24.20
2022-11-29T09:17:04.111Z,24.17
2022-11-29T09:21:56.302Z,23.43
2022-11-29T09:26:48.392Z,25.70
2022-11-29T09:31:40.224Z,25.53
2022-11-29T09:36:31.892Z,26.70
2022-11-29T09:41:32.832Z,27.03
2022-11-29T09:46:42.590Z,24.83
2022-11-29T09:51:59.221Z,24.67
2022-11-29T09:56:53.161Z,24.00
2022-11-29T10:01:51.443Z,22.50
2022-11-29T10:06:52.059Z,24.37
2022-11-29T10:11:58.271Z,24.13
2022-11-29T10:17:01.068Z,23.67
2022-11-29T10:22:17.722Z,24.73
2022-11-29T10:27:23.105Z,22.23
2022-11-29T10:32:15.813Z,22.70
2022-11-29T10:37:21.141Z,22.80
2022-11-29T10:42:39.626Z,23.43
2022-11-29T10:47:32.087Z,22.17
2022-11-29T10:52:24.173Z,21.50
2022-11-29T10:57:18.706Z,21.80
2022-11-29T11:02:21.110Z,20.47
2022-11-29T11:07:27.919Z,18.73
2022-11-29T11:12:22.783Z,19.50
2022-11-29T11:17:22.261Z,18.67
2022-11-29T11:22:21.847Z,17.50
2022-11-29T11:27:13.424Z,15.13
2022-11-29T11:32:14.578Z,14.43
2022-11-29T11:37:15.338Z,15.10
2022-11-29T11:42:31.615Z,14.30
2022-11-29T11:47:27.248Z,14.80
2022-11-29T11:52:25.742Z,16.30
2022-11-29T11:57:18.975Z,17.27
2022-11-29T12:02:38.844Z,16.73
2022-11-29T12:08:07.182Z,16.97
2022-11-29T12:12:58.222Z,16.70
2022-11-29T12:18:00.174Z,18.00
2022-11-29T12:23:13.465Z,16.77
2022-11-29T12:28:18.586Z,18.17
2022-11-29T12:33:50.676Z,17.37
2022-11-29T12:38:53.555Z,19.47
2022-11-29T12:44:03.950Z,17.30
2022-11-29T12:49:05.280Z,19.00
2022-11-29T12:54:06.094Z,18.07
2022-11-29T12:59:00.391Z,18.77
2022-11-29T13:04:11.494Z,19.17
2022-11-29T13:09:47.422Z,18.47
2022-11-29T13:15:03.439Z,19.67
2022-11-29T13:20:13.564Z,21.07
2022-11-29T13:25:20.589Z,19.63
2022-11-29T13:30:15.733Z,21.80
2022-11-29T13:35:34.095Z,21.43
2022-11-29T13:40:38.140Z,20.70
2022-11-29T13:45:49.874Z,19.90
2022-11-29T13:50:45.776Z,20.23
2022-11-29T13:55:45.089Z,20.43
2022-11-29T14:00:42.533Z,20.57
2022-11-29T14:05:39.259Z,21.80
2022-11-29T14:10:32.429Z,22.67
2022-11-29T14:15:33.310Z,22.57
2022-11-29T14:20:30.406Z,23.20
2022-11-29T14:30:46.984Z,22.37
2022-11-29T14:35:48.661Z,23.40
2022-11-29T14:40:40.117Z,24.07
2022-11-29T14:45:34.041Z,22.73
2022-11-29T14:50:40.509Z,24.20
2022-11-29T14:55:36.444Z,21.83
2022-11-29T15:00:32.592Z,21.00
2022-11-29T15:05:36.895Z,21.70
2022-11-29T15:10:33.556Z,19.90
2022-11-29T15:15:36.561Z,21.10
2022-11-29T15:20:35.077Z,20.60
2022-11-29T15:25:31.843Z,21.37
2022-11-29T15:30:35.244Z,22.10
2022-11-29T15:35:27.561Z,20.93
2022-11-29T15:40:28.873Z,20.40
2022-11-29T15:45:31.104Z,22.23
2022-11-29T15:50:29.294Z,21.27
2022-11-29T15:55:21.689Z,21.80
2022-11-29T16:00:20.224Z,20.73
2022-11-29T16:05:22.694Z,20.40
2022-11-29T16:10:18.563Z,20.00
2022-11-29T16:15:28.444Z,19.63
2022-11-29T16:20:25.508Z,21.07
2022-11-29T16:25:19.270Z,19.37
2022-11-29T16:30:22.447Z,20.93
2022-11-29T16:35:26.451Z,19.67
2022-11-29T16:40:28.470Z,19.10
2022-11-29T16:45:40.990Z,21.77
2022-11-29T16:50:33.223Z,21.63
2022-11-29T16:55:24.836Z,21.13
2022-11-29T17:00:24.439Z,20.10
2022-11-29T17:05:16.003Z,18.57
2022-11-29T17:10:09.322Z,19.37
2022-11-29T17:15:00.801Z,19.17
2022-11-29T17:19:52.868Z,19.37
2022-11-29T17:24:48.065Z,20.00
2022-11-29T17:29:40.013Z,17.37
2022-11-29T17:34:31.637Z,18.57
2022-11-29T17:39:23.217Z,17.00
2022-11-29T17:44:14.881Z,17.57
2022-11-29T17:49:08.693Z,15.70
2022-11-29T17:54:02.801Z,15.80
2022-11-29T17:58:56.968Z,15.40
2022-11-29T18:03:51.719Z,14.20
2022-11-29T18:08:48.563Z,14.40
2022-11-29T18:13:40.756Z,14.60
2022-11-29T18:18:36.025Z,14.57
2022-11-29T18:23:29.363Z,15.03
2022-11-29T18:28:20.897Z,15.50
2022-11-29T18:33:12.461Z,15.80
2022-11-29T18:38:15.195Z,17.70
2022-11-29T18:43:08.581Z,16.10
2022-11-29T18:48:00.085Z,15.77
2022-11-29T18:52:54.104Z,16.73
2022-11-29T18:57:48.829Z,15.17
2022-11-29T19:02:40.787Z,16.83
2022-11-29T19:07:33.676Z,16.03
2022-11-29T19:12:25.622Z,16.67
2022-11-29T19:17:17.773Z,18.27
2022-11-29T19:22:09.370Z,17.57
2022-11-29T19:27:03.065Z,17.90
2022-11-29T19:31:54.863Z,14.60
2022-11-29T19:36:46.461Z,16.40
2022-11-29T19:41:38.161Z,16.10
2022-11-29T19:46:32.631Z,16.60
2022-11-29T19:51:25.485Z,17.23
2022-11-29T19:56:17.475Z,17.70
2022-11-29T20:01:10.658Z,17.97
2022-11-29T20:06:02.643Z,19.57
2022-11-29T20:10:54.608Z,19.03
2022-11-29T20:15:46.668Z,18.60
2022-11-29T20:20:38.405Z,18.03
2022-11-29T20:25:30.601Z,18.20
2022-11-29T20:30:22.477Z,19.57
2022-11-29T20:35:15.878Z,17.03
2022-11-29T20:40:15.807Z,18.10
2022-11-29T20:45:09.489Z,17.83
2022-11-29T20:50:01.214Z,18.83
2022-11-29T20:54:52.745Z,18.40
2022-11-29T20:59:44.764Z,18.43
2022-11-29T21:04:36.515Z,17.00
2022-11-29T21:09:28.615Z,17.43
2022-11-29T21:14:20.489Z,17.13
2022-11-29T21:19:19.655Z,15.90
2022-11-29T21:24:23.250Z,16.17
2022-11-29T21:29:20.138Z,15.53
2022-11-29T21:34:11.959Z,17.10
2022-11-29T21:39:05.820Z,15.70
2022-11-29T21:44:06.529Z,16.57
2022-11-29T21:48:59.429Z,16.20
2022-11-29T21:53:50.918Z,17.20
2022-11-29T21:58:42.613Z,17.27
2022-11-29T22:03:34.589Z,17.43
2022-11-29T22:08:26.111Z,16.87
2022-11-29T22:13:17.686Z,16.37
2022-11-29T22:18:10.299Z,17.17
2022-11-29T22:23:01.790Z,17.77
2022-11-29T22:27:53.455Z,17.57
2022-11-29T22:32:44.961Z,18.93
2022-11-29T22:37:36.901Z,17.43
2022-11-29T22:42:28.410Z,19.17
2022-11-29T22:47:19.992Z,17.37
2022-11-29T22:52:11.568Z,17.50
2022-11-29T22:57:03.183Z,19.30
2022-11-29T23:01:54.792Z,19.23
2022-11-29T23:06:46.878Z,18.60
2022-11-29T23:11:38.630Z,17.83
2022-11-29T23:16:30.880Z,18.53
2022-11-29T23:21:23.842Z,18.77
2022-11-29T23:26:22.087Z,17.77
2022-11-29T23:31:13.776Z,18.03
2022-11-29T23:36:07.880Z,17.70
2022-11-29T23:40:59.614Z,17.83
2022-11-29T23:45:51.175Z,16.93
2022-11-29T23:50:43.529Z,18.53
2022-11-29T23:55:35.138Z,19.97
